Aviation Digital Data Service (ADDS)

Output produced by METARs form (1644 UTC 20 January 2019)
found at http://www.aviationweather.gov/metar/data/
 
DGAA 201600Z 19013KT 8000 FEW030CB 30/24 Q1010 NOSIG
TAF DGAA 201100Z 2012/2118 19010KT 8000 SCT020 
     PROB30 
     TEMPO 2016/2020 5000 TSRA BKN030CB 
     BECMG 2021/2023 CAVOK 
     BECMG 2105/2107 27008KT 4000 BR